sensor_id;sensor_type;location;lat;lon;timestamp;pressure;altitude;pressure_sealevel;temperature;humidity
74958;BME280;63741;42.624;26.276;2023-09-12T00:00:11;99886.56;;;18.03;57.69
74958;BME280;63741;42.624;26.276;2023-09-12T00:02:38;99884.28;;;18.08;57.30
74958;BME280;63741;42.624;26.276;2023-09-12T00:05:06;99890.94;;;18.04;57.42
74958;BME280;63741;42.624;26.276;2023-09-12T00:07:39;99890.19;;;17.94;57.85
74958;BME280;63741;42.624;26.276;2023-09-12T00:10:09;99892.78;;;18.04;57.01
74958;BME280;63741;42.624;26.276;2023-09-12T00:12:37;99890.84;;;18.22;56.76
74958;BME280;63741;42.624;26.276;2023-09-12T00:15:04;99891.72;;;18.31;56.30
74958;BME280;63741;42.624;26.276;2023-09-12T00:17:31;99890.84;;;18.22;56.45
74958;BME280;63741;42.624;26.276;2023-09-12T00:19:58;99894.75;;;18.36;56.03
74958;BME280;63741;42.624;26.276;2023-09-12T00:22:25;99888.78;;;18.16;56.29
74958;BME280;63741;42.624;26.276;2023-09-12T00:24:52;99886.84;;;17.66;57.91
74958;BME280;63741;42.624;26.276;2023-09-12T00:27:19;99888.81;;;17.82;57.81
74958;BME280;63741;42.624;26.276;2023-09-12T00:29:46;99894.34;;;17.62;57.89
74958;BME280;63741;42.624;26.276;2023-09-12T00:32:13;99891.16;;;17.59;58.53
74958;BME280;63741;42.624;26.276;2023-09-12T00:34:40;99890.00;;;17.61;58.15
74958;BME280;63741;42.624;26.276;2023-09-12T00:37:07;99892.03;;;17.67;58.13
74958;BME280;63741;42.624;26.276;2023-09-12T00:39:34;99889.88;;;17.71;57.59
74958;BME280;63741;42.624;26.276;2023-09-12T00:42:01;99893.47;;;17.80;57.67
74958;BME280;63741;42.624;26.276;2023-09-12T00:44:28;99887.78;;;17.75;57.89
74958;BME280;63741;42.624;26.276;2023-09-12T00:46:55;99892.13;;;17.76;58.31
74958;BME280;63741;42.624;26.276;2023-09-12T00:49:31;99885.84;;;17.67;57.96
74958;BME280;63741;42.624;26.276;2023-09-12T00:52:04;99894.63;;;17.51;58.62
74958;BME280;63741;42.624;26.276;2023-09-12T00:54:44;99891.66;;;17.36;59.26
74958;BME280;63741;42.624;26.276;2023-09-12T00:57:14;99894.63;;;17.51;58.46
74958;BME280;63741;42.624;26.276;2023-09-12T00:59:41;99884.75;;;17.26;59.55
74958;BME280;63741;42.624;26.276;2023-09-12T01:02:08;99891.91;;;17.43;59.17
74958;BME280;63741;42.624;26.276;2023-09-12T01:04:43;99889.63;;;17.30;59.59
74958;BME280;63741;42.624;26.276;2023-09-12T01:07:11;99890.88;;;17.44;59.46
74958;BME280;63741;42.624;26.276;2023-09-12T01:09:47;99888.63;;;17.31;59.50
74958;BME280;63741;42.624;26.276;2023-09-12T01:12:17;99888.88;;;17.20;60.11
74958;BME280;63741;42.624;26.276;2023-09-12T01:14:45;99893.78;;;17.51;59.30
74958;BME280;63741;42.624;26.276;2023-09-12T01:17:12;99896.50;;;17.59;59.20
74958;BME280;63741;42.624;26.276;2023-09-12T01:19:39;99891.72;;;17.44;59.96
74958;BME280;63741;42.624;26.276;2023-09-12T01:28:12;99887.19;;;17.37;59.82
74958;BME280;63741;42.624;26.276;2023-09-12T01:30:43;99889.75;;;17.47;59.45
74958;BME280;63741;42.624;26.276;2023-09-12T01:33:12;99885.06;;;17.49;59.30
74958;BME280;63741;42.624;26.276;2023-09-12T01:35:39;99884.06;;;17.50;59.13
74958;BME280;63741;42.624;26.276;2023-09-12T01:38:06;99886.59;;;17.51;59.34
74958;BME280;63741;42.624;26.276;2023-09-12T01:40:42;99877.94;;;17.31;59.84
74958;BME280;63741;42.624;26.276;2023-09-12T01:43:11;99882.81;;;17.36;60.10
74958;BME280;63741;42.624;26.276;2023-09-12T01:45:41;99885.47;;;17.36;60.27
74958;BME280;63741;42.624;26.276;2023-09-12T01:48:11;99888.22;;;17.44;59.85
74958;BME280;63741;42.624;26.276;2023-09-12T01:50:39;99885.28;;;17.55;60.01
74958;BME280;63741;42.624;26.276;2023-09-12T01:53:09;99893.25;;;17.47;59.86
74958;BME280;63741;42.624;26.276;2023-09-12T01:55:47;99890.06;;;17.69;59.16
74958;BME280;63741;42.624;26.276;2023-09-12T01:58:17;99884.91;;;17.24;60.28
74958;BME280;63741;42.624;26.276;2023-09-12T02:00:44;99874.88;;;17.26;59.54
74958;BME280;63741;42.624;26.276;2023-09-12T02:03:11;99872.28;;;17.34;59.21
74958;BME280;63741;42.624;26.276;2023-09-12T02:05:47;99875.91;;;17.07;60.24
74958;BME280;63741;42.624;26.276;2023-09-12T02:08:14;99872.75;;;17.30;59.43
74958;BME280;63741;42.624;26.276;2023-09-12T02:10:48;99874.88;;;17.26;59.41
74958;BME280;63741;42.624;26.276;2023-09-12T02:13:19;99871.97;;;17.37;59.08
74958;BME280;63741;42.624;26.276;2023-09-12T02:15:58;99883.41;;;17.48;58.15
74958;BME280;63741;42.624;26.276;2023-09-12T02:18:26;99871.66;;;17.14;59.24
74958;BME280;63741;42.624;26.276;2023-09-12T02:21:00;99877.50;;;17.18;59.23
74958;BME280;63741;42.624;26.276;2023-09-12T02:23:31;99878.50;;;17.17;58.98
74958;BME280;63741;42.624;26.276;2023-09-12T02:26:04;99888.69;;;17.39;58.89
74958;BME280;63741;42.624;26.276;2023-09-12T02:28:35;99886.59;;;17.25;59.07
74958;BME280;63741;42.624;26.276;2023-09-12T02:31:11;99881.38;;;17.41;58.73
74958;BME280;63741;42.624;26.276;2023-09-12T02:33:48;99885.84;;;17.41;59.07
74958;BME280;63741;42.624;26.276;2023-09-12T02:36:21;99883.63;;;17.10;59.84
74958;BME280;63741;42.624;26.276;2023-09-12T02:38:51;99889.88;;;17.19;59.84
74958;BME280;63741;42.624;26.276;2023-09-12T02:41:26;99881.56;;;17.04;59.86
74958;BME280;63741;42.624;26.276;2023-09-12T02:43:53;99885.31;;;17.11;59.58
74958;BME280;63741;42.624;26.276;2023-09-12T02:46:20;99878.50;;;17.17;60.10
74958;BME280;63741;42.624;26.276;2023-09-12T02:48:48;99884.03;;;17.41;59.09
74958;BME280;63741;42.624;26.276;2023-09-12T02:51:15;99885.16;;;17.13;59.43
74958;BME280;63741;42.624;26.276;2023-09-12T02:53:42;99886.06;;;17.22;59.71
74958;BME280;63741;42.624;26.276;2023-09-12T02:56:08;99885.41;;;17.28;59.69
74958;BME280;63741;42.624;26.276;2023-09-12T02:58:35;99884.59;;;17.27;59.18
74958;BME280;63741;42.624;26.276;2023-09-12T03:01:02;99878.53;;;16.81;61.00
74958;BME280;63741;42.624;26.276;2023-09-12T03:03:32;99891.50;;;16.94;60.03
74958;BME280;63741;42.624;26.276;2023-09-12T03:06:01;99886.53;;;16.81;61.17
74958;BME280;63741;42.624;26.276;2023-09-12T03:08:31;99882.41;;;17.05;59.76
74958;BME280;63741;42.624;26.276;2023-09-12T03:10:58;99881.03;;;17.01;60.41
74958;BME280;63741;42.624;26.276;2023-09-12T03:13:25;99888.13;;;16.74;61.02
74958;BME280;63741;42.624;26.276;2023-09-12T03:15:53;99884.03;;;16.80;60.40
74958;BME280;63741;42.624;26.276;2023-09-12T03:18:27;99884.50;;;16.75;60.77
74958;BME280;63741;42.624;26.276;2023-09-12T03:20:54;99892.59;;;16.83;60.84
74958;BME280;63741;42.624;26.276;2023-09-12T03:23:21;99878.38;;;16.83;60.33
74958;BME280;63741;42.624;26.276;2023-09-12T03:25:48;99889.00;;;16.92;60.40
74958;BME280;63741;42.624;26.276;2023-09-12T03:28:15;99881.72;;;17.03;60.01
74958;BME280;63741;42.624;26.276;2023-09-12T03:30:42;99888.09;;;16.84;60.21
74958;BME280;63741;42.624;26.276;2023-09-12T03:33:09;99892.84;;;16.62;60.99
74958;BME280;63741;42.624;26.276;2023-09-12T03:35:36;99886.66;;;16.62;60.59
74958;BME280;63741;42.624;26.276;2023-09-12T03:38:04;99888.03;;;16.66;61.19
74958;BME280;63741;42.624;26.276;2023-09-12T03:40:31;99897.53;;;16.78;60.86
74958;BME280;63741;42.624;26.276;2023-09-12T03:42:59;99898.16;;;16.45;62.00
74958;BME280;63741;42.624;26.276;2023-09-12T03:45:26;99892.00;;;16.62;61.03
74958;BME280;63741;42.624;26.276;2023-09-12T03:47:53;99903.50;;;16.72;61.08
74958;BME280;63741;42.624;26.276;2023-09-12T03:50:20;99894.00;;;16.96;59.83
74958;BME280;63741;42.624;26.276;2023-09-12T03:52:47;99895.25;;;16.83;59.97
74958;BME280;63741;42.624;26.276;2023-09-12T03:55:16;99903.28;;;16.83;60.22
74958;BME280;63741;42.624;26.276;2023-09-12T03:57:53;99907.16;;;16.89;59.40
74958;BME280;63741;42.624;26.276;2023-09-12T04:00:20;99898.59;;;16.85;60.41
74958;BME280;63741;42.624;26.276;2023-09-12T04:02:49;99900.41;;;16.67;60.38
74958;BME280;63741;42.624;26.276;2023-09-12T04:05:15;99898.47;;;16.59;60.79
74958;BME280;63741;42.624;26.276;2023-09-12T04:07:42;99906.75;;;16.66;60.83
74958;BME280;63741;42.624;26.276;2023-09-12T04:10:09;99908.38;;;16.95;59.98
74958;BME280;63741;42.624;26.276;2023-09-12T04:12:36;99910.63;;;16.72;60.03
74958;BME280;63741;42.624;26.276;2023-09-12T04:15:03;99909.38;;;16.76;60.29
74958;BME280;63741;42.624;26.276;2023-09-12T04:17:33;99911.00;;;16.59;60.94
74958;BME280;63741;42.624;26.276;2023-09-12T04:20:00;99905.63;;;16.41;61.86
74958;BME280;63741;42.624;26.276;2023-09-12T04:22:27;99910.31;;;16.57;60.70
74958;BME280;63741;42.624;26.276;2023-09-12T04:24:55;99920.09;;;16.38;61.30
74958;BME280;63741;42.624;26.276;2023-09-12T04:27:22;99913.06;;;16.65;60.77
74958;BME280;63741;42.624;26.276;2023-09-12T04:29:49;99910.78;;;16.70;61.05
74958;BME280;63741;42.624;26.276;2023-09-12T04:32:16;99909.53;;;16.64;60.86
74958;BME280;63741;42.624;26.276;2023-09-12T04:34:56;99921.00;;;16.57;61.64
74958;BME280;63741;42.624;26.276;2023-09-12T04:37:31;99915.50;;;16.58;60.94
74958;BME280;63741;42.624;26.276;2023-09-12T04:39:58;99911.41;;;17.00;60.33
74958;BME280;63741;42.624;26.276;2023-09-12T04:42:25;99913.44;;;16.98;60.29
74958;BME280;63741;42.624;26.276;2023-09-12T04:44:52;99913.59;;;16.68;60.97
74958;BME280;63741;42.624;26.276;2023-09-12T04:47:19;99918.59;;;16.99;60.15
74958;BME280;63741;42.624;26.276;2023-09-12T04:49:47;99915.41;;;16.96;60.20
74958;BME280;63741;42.624;26.276;2023-09-12T04:52:14;99912.63;;;17.23;59.41
74958;BME280;63741;42.624;26.276;2023-09-12T04:54:41;99916.81;;;17.26;59.29
74958;BME280;63741;42.624;26.276;2023-09-12T04:57:08;99925.91;;;17.59;58.21
74958;BME280;63741;42.624;26.276;2023-09-12T04:59:36;99923.03;;;17.52;58.60
74958;BME280;63741;42.624;26.276;2023-09-12T05:02:03;99930.50;;;17.66;57.73
74958;BME280;63741;42.624;26.276;2023-09-12T05:04:30;99927.78;;;17.84;57.88
74958;BME280;63741;42.624;26.276;2023-09-12T05:06:57;99925.75;;;17.78;57.99
74958;BME280;63741;42.624;26.276;2023-09-12T05:09:24;99928.16;;;17.46;58.93
74958;BME280;63741;42.624;26.276;2023-09-12T05:11:51;99930.25;;;18.04;57.15
74958;BME280;63741;42.624;26.276;2023-09-12T05:14:18;99924.59;;;17.81;58.23
74958;BME280;63741;42.624;26.276;2023-09-12T05:16:51;99926.31;;;18.24;56.66
74958;BME280;63741;42.624;26.276;2023-09-12T05:19:25;99930.69;;;18.33;56.57
74958;BME280;63741;42.624;26.276;2023-09-12T05:21:59;99923.72;;;18.40;56.55
74958;BME280;63741;42.624;26.276;2023-09-12T05:24:29;99928.75;;;18.52;56.35
74958;BME280;63741;42.624;26.276;2023-09-12T05:26:56;99927.22;;;18.41;56.65
74958;BME280;63741;42.624;26.276;2023-09-12T05:29:25;99926.13;;;18.68;55.53
74958;BME280;63741;42.624;26.276;2023-09-12T05:32:06;99930.88;;;18.90;54.67
74958;BME280;63741;42.624;26.276;2023-09-12T05:34:39;99926.38;;;19.32;54.09
74958;BME280;63741;42.624;26.276;2023-09-12T05:37:08;99928.53;;;18.96;54.98
74958;BME280;63741;42.624;26.276;2023-09-12T05:39:38;99936.59;;;18.96;55.22
74958;BME280;63741;42.624;26.276;2023-09-12T05:42:11;99931.91;;;19.22;53.83
74958;BME280;63741;42.624;26.276;2023-09-12T05:44:48;99926.88;;;19.35;53.61
74958;BME280;63741;42.624;26.276;2023-09-12T05:47:15;99924.69;;;19.55;52.95
74958;BME280;63741;42.624;26.276;2023-09-12T05:49:42;99929.25;;;19.22;53.96
74958;BME280;63741;42.624;26.276;2023-09-12T05:52:09;99932.25;;;19.27;53.83
74958;BME280;63741;42.624;26.276;2023-09-12T05:54:38;99926.88;;;19.19;54.57
74958;BME280;63741;42.624;26.276;2023-09-12T05:57:06;99925.38;;;19.33;54.28
74958;BME280;63741;42.624;26.276;2023-09-12T05:59:36;99933.59;;;19.56;53.82
74958;BME280;63741;42.624;26.276;2023-09-12T06:02:04;99932.91;;;19.45;54.03
74958;BME280;63741;42.624;26.276;2023-09-12T06:04:32;99933.25;;;19.51;53.23
74958;BME280;63741;42.624;26.276;2023-09-12T06:07:04;99930.41;;;19.68;53.29
74958;BME280;63741;42.624;26.276;2023-09-12T06:09:31;99930.38;;;19.85;53.34
74958;BME280;63741;42.624;26.276;2023-09-12T06:11:58;99930.50;;;20.00;52.07
74958;BME280;63741;42.624;26.276;2023-09-12T06:14:24;99934.56;;;20.35;52.14
74958;BME280;63741;42.624;26.276;2023-09-12T06:16:51;99943.63;;;20.34;51.85
74958;BME280;63741;42.624;26.276;2023-09-12T06:19:18;99943.75;;;20.49;50.62
74958;BME280;63741;42.624;26.276;2023-09-12T06:21:46;99946.72;;;20.62;51.75
74958;BME280;63741;42.624;26.276;2023-09-12T06:24:19;99948.50;;;20.78;51.03
74958;BME280;63741;42.624;26.276;2023-09-12T06:26:46;99943.56;;;20.58;51.33
74958;BME280;63741;42.624;26.276;2023-09-12T06:29:25;99947.63;;;20.85;50.66
74958;BME280;63741;42.624;26.276;2023-09-12T06:31:52;99948.97;;;20.81;51.43
74958;BME280;63741;42.624;26.276;2023-09-12T06:34:19;99948.06;;;20.89;50.76
74958;BME280;63741;42.624;26.276;2023-09-12T06:36:46;99942.88;;;21.10;49.36
74958;BME280;63741;42.624;26.276;2023-09-12T06:39:13;99945.94;;;21.07;50.21
74958;BME280;63741;42.624;26.276;2023-09-12T06:41:40;99941.47;;;21.23;50.38
74958;BME280;63741;42.624;26.276;2023-09-12T06:44:07;99949.47;;;21.31;50.76
74958;BME280;63741;42.624;26.276;2023-09-12T06:46:34;99957.81;;;21.44;50.34
74958;BME280;63741;42.624;26.276;2023-09-12T06:49:04;99952.34;;;21.52;50.00
74958;BME280;63741;42.624;26.276;2023-09-12T06:51:31;99954.38;;;21.50;49.43
74958;BME280;63741;42.624;26.276;2023-09-12T06:54:04;99957.41;;;21.70;50.35
74958;BME280;63741;42.624;26.276;2023-09-12T06:56:30;99957.63;;;21.98;48.71
74958;BME280;63741;42.624;26.276;2023-09-12T06:58:59;99961.97;;;21.99;48.50
74958;BME280;63741;42.624;26.276;2023-09-12T07:01:26;99960.81;;;22.16;48.12
74958;BME280;63741;42.624;26.276;2023-09-12T07:03:53;99963.47;;;22.31;48.82
74958;BME280;63741;42.624;26.276;2023-09-12T07:06:22;99960.50;;;22.41;49.03
74958;BME280;63741;42.624;26.276;2023-09-12T07:08:49;99970.34;;;22.49;48.85
74958;BME280;63741;42.624;26.276;2023-09-12T07:11:18;99969.06;;;22.81;48.64
74958;BME280;63741;42.624;26.276;2023-09-12T07:13:46;99974.34;;;22.89;47.51
74958;BME280;63741;42.624;26.276;2023-09-12T07:16:13;99968.94;;;23.04;46.48
74958;BME280;63741;42.624;26.276;2023-09-12T07:18:40;99967.41;;;23.16;45.94
74958;BME280;63741;42.624;26.276;2023-09-12T07:21:09;99959.91;;;23.33;48.61
74958;BME280;63741;42.624;26.276;2023-09-12T07:23:38;99960.75;;;23.61;48.37
74958;BME280;63741;42.624;26.276;2023-09-12T07:26:04;99949.84;;;23.48;47.02
74958;BME280;63741;42.624;26.276;2023-09-12T07:28:31;99945.50;;;23.75;47.49
74958;BME280;63741;42.624;26.276;2023-09-12T07:30:58;99950.03;;;23.96;46.78
74958;BME280;63741;42.624;26.276;2023-09-12T07:33:25;99950.03;;;23.96;46.30
74958;BME280;63741;42.624;26.276;2023-09-12T07:35:53;99939.94;;;23.77;45.62
74958;BME280;63741;42.624;26.276;2023-09-12T07:38:21;99947.97;;;23.70;45.99
74958;BME280;63741;42.624;26.276;2023-09-12T07:40:48;99943.50;;;23.84;45.61
74958;BME280;63741;42.624;26.276;2023-09-12T07:43:15;99941.31;;;24.01;45.64
74958;BME280;63741;42.624;26.276;2023-09-12T07:45:42;99950.91;;;24.03;44.37
74958;BME280;63741;42.624;26.276;2023-09-12T07:48:10;99944.25;;;24.06;44.89
74958;BME280;63741;42.624;26.276;2023-09-12T07:50:38;99950.94;;;24.38;44.60
74958;BME280;63741;42.624;26.276;2023-09-12T07:53:05;99942.97;;;24.36;44.27
74958;BME280;63741;42.624;26.276;2023-09-12T07:55:41;99942.22;;;24.49;44.10
74958;BME280;63741;42.624;26.276;2023-09-12T07:58:17;99941.34;;;24.42;44.39
74958;BME280;63741;42.624;26.276;2023-09-12T08:00:48;99941.56;;;24.40;45.13
74958;BME280;63741;42.624;26.276;2023-09-12T08:03:15;99951.22;;;24.56;44.57
74958;BME280;63741;42.624;26.276;2023-09-12T08:05:43;99942.22;;;24.49;45.19
74958;BME280;63741;42.624;26.276;2023-09-12T08:08:09;99946.59;;;24.43;44.56
74958;BME280;63741;42.624;26.276;2023-09-12T08:10:37;99943.56;;;24.73;43.70
74958;BME280;63741;42.624;26.276;2023-09-12T08:13:04;99941.34;;;24.96;44.22
74958;BME280;63741;42.624;26.276;2023-09-12T08:15:31;99947.41;;;25.05;44.26
74958;BME280;63741;42.624;26.276;2023-09-12T08:17:58;99939.75;;;25.15;43.65
74958;BME280;63741;42.624;26.276;2023-09-12T08:20:24;99946.63;;;25.25;43.90
74958;BME280;63741;42.624;26.276;2023-09-12T08:22:51;99944.13;;;25.43;42.01
74958;BME280;63741;42.624;26.276;2023-09-12T08:25:18;99946.00;;;25.36;42.79
74958;BME280;63741;42.624;26.276;2023-09-12T08:27:45;99937.88;;;25.69;42.88
74958;BME280;63741;42.624;26.276;2023-09-12T08:30:13;99943.91;;;25.31;43.45
74958;BME280;63741;42.624;26.276;2023-09-12T08:32:40;99930.78;;;25.28;42.40
74958;BME280;63741;42.624;26.276;2023-09-12T08:35:12;99934.75;;;25.39;43.16
74958;BME280;63741;42.624;26.276;2023-09-12T08:37:40;99931.22;;;25.58;42.45
74958;BME280;63741;42.624;26.276;2023-09-12T08:40:08;99931.00;;;25.73;42.17
74958;BME280;63741;42.624;26.276;2023-09-12T08:42:44;99929.97;;;25.67;42.43
74958;BME280;63741;42.624;26.276;2023-09-12T08:45:13;99928.25;;;25.93;41.86
74958;BME280;63741;42.624;26.276;2023-09-12T08:47:43;99929.53;;;25.90;40.83
74958;BME280;63741;42.624;26.276;2023-09-12T08:50:12;99922.53;;;26.28;40.96
74958;BME280;63741;42.624;26.276;2023-09-12T08:52:41;99932.59;;;26.14;40.64
74958;BME280;63741;42.624;26.276;2023-09-12T08:55:34;99923.09;;;26.43;40.75
74958;BME280;63741;42.624;26.276;2023-09-12T08:58:05;99924.78;;;26.37;41.04
74958;BME280;63741;42.624;26.276;2023-09-12T09:00:34;99922.72;;;26.84;40.30
74958;BME280;63741;42.624;26.276;2023-09-12T09:03:03;99929.09;;;26.96;39.84
74958;BME280;63741;42.624;26.276;2023-09-12T09:05:31;99923.41;;;26.73;39.46
74958;BME280;63741;42.624;26.276;2023-09-12T09:08:01;99909.81;;;26.80;39.42
74958;BME280;63741;42.624;26.276;2023-09-12T09:10:29;99910.03;;;27.10;37.88
74958;BME280;63741;42.624;26.276;2023-09-12T09:13:17;99914.59;;;27.16;39.72
74958;BME280;63741;42.624;26.276;2023-09-12T09:15:45;99912.66;;;27.23;38.61
74958;BME280;63741;42.624;26.276;2023-09-12T09:18:13;99918.81;;;26.74;38.76
74958;BME280;63741;42.624;26.276;2023-09-12T09:20:40;99902.75;;;27.04;37.96
74958;BME280;63741;42.624;26.276;2023-09-12T09:23:16;99909.22;;;27.09;38.54
74958;BME280;63741;42.624;26.276;2023-09-12T09:25:51;99901.53;;;27.31;37.13
74958;BME280;63741;42.624;26.276;2023-09-12T09:28:21;99906.13;;;27.31;37.25
74958;BME280;63741;42.624;26.276;2023-09-12T09:30:50;99906.91;;;27.38;37.69
74958;BME280;63741;42.624;26.276;2023-09-12T09:33:18;99912.75;;;27.41;38.00
74958;BME280;63741;42.624;26.276;2023-09-12T09:35:47;99900.63;;;27.62;37.35
74958;BME280;63741;42.624;26.276;2023-09-12T09:38:15;99900.19;;;27.65;37.53
74958;BME280;63741;42.624;26.276;2023-09-12T09:40:45;99892.91;;;27.84;36.63
74958;BME280;63741;42.624;26.276;2023-09-12T09:43:12;99895.44;;;28.04;35.83
74958;BME280;63741;42.624;26.276;2023-09-12T09:45:45;99891.94;;;27.97;36.51
74958;BME280;63741;42.624;26.276;2023-09-12T09:48:20;99886.44;;;28.22;36.29
74958;BME280;63741;42.624;26.276;2023-09-12T09:50:48;99890.50;;;28.50;35.29
74958;BME280;63741;42.624;26.276;2023-09-12T09:53:15;99890.00;;;28.53;36.01
74958;BME280;63741;42.624;26.276;2023-09-12T09:55:42;99895.63;;;28.58;34.78
74958;BME280;63741;42.624;26.276;2023-09-12T09:58:14;99885.59;;;28.40;35.26
74958;BME280;63741;42.624;26.276;2023-09-12T10:00:43;99887.22;;;28.59;35.57
74958;BME280;63741;42.624;26.276;2023-09-12T10:03:12;99886.88;;;28.37;35.46
74958;BME280;63741;42.624;26.276;2023-09-12T10:05:43;99890.19;;;28.69;35.02
74958;BME280;63741;42.624;26.276;2023-09-12T10:08:11;99885.38;;;28.41;34.88
74958;BME280;63741;42.624;26.276;2023-09-12T10:10:44;99879.94;;;28.71;35.63
74958;BME280;63741;42.624;26.276;2023-09-12T10:13:12;99872.81;;;29.01;34.34
74958;BME280;63741;42.624;26.276;2023-09-12T10:15:42;99871.53;;;29.15;34.94
74958;BME280;63741;42.624;26.276;2023-09-12T10:18:14;99877.66;;;28.99;34.73
74958;BME280;63741;42.624;26.276;2023-09-12T10:21:01;99875.63;;;28.64;34.16
74958;BME280;63741;42.624;26.276;2023-09-12T10:23:38;99876.03;;;28.79;34.22
74958;BME280;63741;42.624;26.276;2023-09-12T10:26:13;99878.28;;;28.82;34.14
74958;BME280;63741;42.624;26.276;2023-09-12T10:28:41;99865.75;;;28.81;33.72
74958;BME280;63741;42.624;26.276;2023-09-12T10:31:12;99872.97;;;28.45;34.93
74958;BME280;63741;42.624;26.276;2023-09-12T10:33:39;99871.72;;;29.02;34.63
74958;BME280;63741;42.624;26.276;2023-09-12T10:36:08;99866.69;;;29.40;34.47
74958;BME280;63741;42.624;26.276;2023-09-12T10:38:41;99858.06;;;29.55;33.13
74958;BME280;63741;42.624;26.276;2023-09-12T10:41:14;99861.72;;;29.37;32.61
74958;BME280;63741;42.624;26.276;2023-09-12T10:43:43;99856.28;;;29.49;33.42
74958;BME280;63741;42.624;26.276;2023-09-12T10:46:13;99868.22;;;29.95;32.61
74958;BME280;63741;42.624;26.276;2023-09-12T10:48:40;99860.75;;;30.14;32.70
74958;BME280;63741;42.624;26.276;2023-09-12T10:51:08;99854.75;;;30.29;32.65
74958;BME280;63741;42.624;26.276;2023-09-12T10:53:36;99855.09;;;30.61;31.74
74958;BME280;63741;42.624;26.276;2023-09-12T11:01:37;99845.22;;;29.91;31.59
74958;BME280;63741;42.624;26.276;2023-09-12T11:06:55;99838.13;;;29.55;31.71
74958;BME280;63741;42.624;26.276;2023-09-12T11:09:24;99833.13;;;29.99;32.42
74958;BME280;63741;42.624;26.276;2023-09-12T11:12:01;99834.03;;;30.16;31.19
74958;BME280;63741;42.624;26.276;2023-09-12T11:14:29;99826.59;;;30.40;31.24
74958;BME280;63741;42.624;26.276;2023-09-12T11:19:46;99822.47;;;29.85;31.70
74958;BME280;63741;42.624;26.276;2023-09-12T11:22:28;99813.16;;;29.69;32.09
74958;BME280;63741;42.624;26.276;2023-09-12T11:25:01;99816.91;;;29.92;31.62
74958;BME280;63741;42.624;26.276;2023-09-12T11:30:26;99819.63;;;29.80;31.82
74958;BME280;63741;42.624;26.276;2023-09-12T11:32:58;99816.56;;;29.77;30.89
74958;BME280;63741;42.624;26.276;2023-09-12T11:35:28;99815.50;;;30.18;31.65
74958;BME280;63741;42.624;26.276;2023-09-12T11:37:59;99802.59;;;29.61;31.42
74958;BME280;63741;42.624;26.276;2023-09-12T11:43:00;99801.91;;;30.06;31.35
74958;BME280;63741;42.624;26.276;2023-09-12T11:45:32;99792.66;;;30.36;31.41
74958;BME280;63741;42.624;26.276;2023-09-12T11:47:59;99799.25;;;30.52;30.99
74958;BME280;63741;42.624;26.276;2023-09-12T11:50:33;99793.91;;;30.28;30.91
74958;BME280;63741;42.624;26.276;2023-09-12T11:53:12;99796.38;;;30.30;31.09
74958;BME280;63741;42.624;26.276;2023-09-12T11:55:50;99787.75;;;30.66;31.28
74958;BME280;63741;42.624;26.276;2023-09-12T11:58:20;99797.75;;;30.61;30.37
74958;BME280;63741;42.624;26.276;2023-09-12T12:00:51;99792.13;;;30.51;31.59
74958;BME280;63741;42.624;26.276;2023-09-12T12:03:22;99796.56;;;30.40;30.84
74958;BME280;63741;42.624;26.276;2023-09-12T12:05:50;99784.56;;;30.12;31.87
74958;BME280;63741;42.624;26.276;2023-09-12T12:08:18;99783.81;;;29.88;30.71
74958;BME280;63741;42.624;26.276;2023-09-12T12:10:51;99784.38;;;30.31;30.39
74958;BME280;63741;42.624;26.276;2023-09-12T12:13:20;99779.72;;;30.60;30.21
74958;BME280;63741;42.624;26.276;2023-09-12T12:15:47;99781.31;;;30.89;29.67
74958;BME280;63741;42.624;26.276;2023-09-12T12:18:15;99780.78;;;30.42;30.69
74958;BME280;63741;42.624;26.276;2023-09-12T12:20:44;99783.72;;;30.69;30.21
74958;BME280;63741;42.624;26.276;2023-09-12T12:23:11;99770.25;;;31.13;30.15
74958;BME280;63741;42.624;26.276;2023-09-12T12:25:38;99773.66;;;31.03;29.54
74958;BME280;63741;42.624;26.276;2023-09-12T12:28:06;99763.00;;;31.24;29.62
74958;BME280;63741;42.624;26.276;2023-09-12T12:30:35;99766.38;;;31.48;29.21
74958;BME280;63741;42.624;26.276;2023-09-12T12:33:08;99762.88;;;31.74;30.12
74958;BME280;63741;42.624;26.276;2023-09-12T12:36:05;99761.75;;;31.92;29.09
74958;BME280;63741;42.624;26.276;2023-09-12T12:38:36;99767.75;;;31.89;28.15
74958;BME280;63741;42.624;26.276;2023-09-12T12:41:22;99764.75;;;31.90;28.42
74958;BME280;63741;42.624;26.276;2023-09-12T12:43:50;99762.03;;;32.17;28.87
74958;BME280;63741;42.624;26.276;2023-09-12T12:46:21;99761.69;;;32.09;28.64
74958;BME280;63741;42.624;26.276;2023-09-12T12:48:48;99757.72;;;31.56;29.57
74958;BME280;63741;42.624;26.276;2023-09-12T12:51:24;99758.69;;;31.44;29.67
74958;BME280;63741;42.624;26.276;2023-09-12T12:54:05;99756.84;;;31.50;29.16
74958;BME280;63741;42.624;26.276;2023-09-12T12:56:35;99756.72;;;31.40;29.07
74958;BME280;63741;42.624;26.276;2023-09-12T12:59:08;99763.34;;;31.44;28.91
74958;BME280;63741;42.624;26.276;2023-09-12T13:01:37;99758.81;;;31.77;28.90
74958;BME280;63741;42.624;26.276;2023-09-12T13:04:06;99758.19;;;31.69;28.93
74958;BME280;63741;42.624;26.276;2023-09-12T13:06:34;99753.03;;;30.79;29.23
74958;BME280;63741;42.624;26.276;2023-09-12T13:09:05;99747.66;;;31.01;29.79
74958;BME280;63741;42.624;26.276;2023-09-12T13:11:41;99747.44;;;31.24;29.45
74958;BME280;63741;42.624;26.276;2023-09-12T13:14:09;99754.22;;;31.38;29.38
74958;BME280;63741;42.624;26.276;2023-09-12T13:16:40;99753.72;;;31.63;28.93
74958;BME280;63741;42.624;26.276;2023-09-12T13:19:10;99743.94;;;31.45;28.61
74958;BME280;63741;42.624;26.276;2023-09-12T13:21:40;99744.97;;;31.61;28.61
74958;BME280;63741;42.624;26.276;2023-09-12T13:24:07;99741.22;;;31.67;28.89